sensor_id;sensor_type;location;lat;lon;timestamp;P1;durP1;ratioP1;P2;durP2;ratioP2
2029;SDS011;1020;48.854;8.830;2023-07-30T00:01:52;2.90;;;2.60;;
2029;SDS011;1020;48.854;8.830;2023-07-30T00:04:19;2.93;;;2.07;;
2029;SDS011;1020;48.854;8.830;2023-07-30T00:06:46;2.30;;;2.20;;
2029;SDS011;1020;48.854;8.830;2023-07-30T00:09:12;2.00;;;1.87;;
2029;SDS011;1020;48.854;8.830;2023-07-30T00:11:41;2.30;;;2.10;;
2029;SDS011;1020;48.854;8.830;2023-07-30T00:14:07;1.70;;;1.60;;
2029;SDS011;1020;48.854;8.830;2023-07-30T00:16:34;1.40;;;1.30;;
2029;SDS011;1020;48.854;8.830;2023-07-30T00:19:01;2.03;;;1.83;;
2029;SDS011;1020;48.854;8.830;2023-07-30T00:21:28;2.07;;;1.60;;
2029;SDS011;1020;48.854;8.830;2023-07-30T00:23:54;3.30;;;1.60;;
2029;SDS011;1020;48.854;8.830;2023-07-30T00:26:22;2.07;;;1.47;;
2029;SDS011;1020;48.854;8.830;2023-07-30T00:28:52;2.37;;;1.87;;
2029;SDS011;1020;48.854;8.830;2023-07-30T00:31:19;2.37;;;2.27;;
2029;SDS011;1020;48.854;8.830;2023-07-30T00:33:46;6.43;;;2.40;;
2029;SDS011;1020;48.854;8.830;2023-07-30T00:36:12;1.47;;;1.37;;
2029;SDS011;1020;48.854;8.830;2023-07-30T00:38:39;4.03;;;1.80;;
2029;SDS011;1020;48.854;8.830;2023-07-30T00:41:06;1.90;;;1.10;;
2029;SDS011;1020;48.854;8.830;2023-07-30T00:43:33;1.70;;;1.27;;
2029;SDS011;1020;48.854;8.830;2023-07-30T00:46:01;1.20;;;1.10;;
2029;SDS011;1020;48.854;8.830;2023-07-30T00:48:28;1.53;;;1.30;;
2029;SDS011;1020;48.854;8.830;2023-07-30T00:50:55;1.17;;;1.07;;
2029;SDS011;1020;48.854;8.830;2023-07-30T00:53:23;1.17;;;1.10;;
2029;SDS011;1020;48.854;8.830;2023-07-30T00:55:52;1.10;;;1.00;;
2029;SDS011;1020;48.854;8.830;2023-07-30T00:58:19;1.00;;;0.90;;
2029;SDS011;1020;48.854;8.830;2023-07-30T01:00:47;2.43;;;1.40;;
2029;SDS011;1020;48.854;8.830;2023-07-30T01:03:15;3.40;;;1.20;;
2029;SDS011;1020;48.854;8.830;2023-07-30T01:05:42;1.23;;;1.23;;
2029;SDS011;1020;48.854;8.830;2023-07-30T01:08:10;1.40;;;1.27;;
2029;SDS011;1020;48.854;8.830;2023-07-30T01:10:37;1.67;;;1.30;;
2029;SDS011;1020;48.854;8.830;2023-07-30T01:13:06;1.20;;;1.10;;
2029;SDS011;1020;48.854;8.830;2023-07-30T01:15:35;1.27;;;1.13;;
2029;SDS011;1020;48.854;8.830;2023-07-30T01:18:03;1.40;;;1.30;;
2029;SDS011;1020;48.854;8.830;2023-07-30T01:20:31;1.10;;;1.00;;
2029;SDS011;1020;48.854;8.830;2023-07-30T01:23:00;2.30;;;1.60;;
2029;SDS011;1020;48.854;8.830;2023-07-30T01:25:27;2.13;;;1.50;;
2029;SDS011;1020;48.854;8.830;2023-07-30T01:27:57;1.40;;;1.30;;
2029;SDS011;1020;48.854;8.830;2023-07-30T01:30:27;1.60;;;1.50;;
2029;SDS011;1020;48.854;8.830;2023-07-30T01:32:56;1.53;;;1.43;;
2029;SDS011;1020;48.854;8.830;2023-07-30T01:35:25;1.87;;;1.50;;
2029;SDS011;1020;48.854;8.830;2023-07-30T01:37:53;1.60;;;1.50;;
2029;SDS011;1020;48.854;8.830;2023-07-30T01:40:22;1.57;;;1.47;;
2029;SDS011;1020;48.854;8.830;2023-07-30T01:42:49;1.97;;;1.67;;
2029;SDS011;1020;48.854;8.830;2023-07-30T01:45:15;1.83;;;1.73;;
2029;SDS011;1020;48.854;8.830;2023-07-30T01:47:42;4.90;;;2.17;;
2029;SDS011;1020;48.854;8.830;2023-07-30T01:50:09;2.10;;;1.90;;
2029;SDS011;1020;48.854;8.830;2023-07-30T01:52:36;2.10;;;1.90;;
2029;SDS011;1020;48.854;8.830;2023-07-30T01:55:03;1.50;;;1.40;;
2029;SDS011;1020;48.854;8.830;2023-07-30T01:57:32;1.90;;;1.80;;
2029;SDS011;1020;48.854;8.830;2023-07-30T01:59:59;1.80;;;1.70;;
2029;SDS011;1020;48.854;8.830;2023-07-30T02:02:25;2.10;;;1.90;;
2029;SDS011;1020;48.854;8.830;2023-07-30T02:04:52;2.30;;;1.93;;
2029;SDS011;1020;48.854;8.830;2023-07-30T02:07:19;2.47;;;2.27;;
2029;SDS011;1020;48.854;8.830;2023-07-30T02:09:46;2.40;;;1.50;;
2029;SDS011;1020;48.854;8.830;2023-07-30T02:12:12;3.27;;;1.90;;
2029;SDS011;1020;48.854;8.830;2023-07-30T02:14:40;2.10;;;2.00;;
2029;SDS011;1020;48.854;8.830;2023-07-30T02:17:07;2.10;;;2.00;;
2029;SDS011;1020;48.854;8.830;2023-07-30T02:19:34;2.33;;;2.10;;
2029;SDS011;1020;48.854;8.830;2023-07-30T02:22:01;2.03;;;1.93;;
2029;SDS011;1020;48.854;8.830;2023-07-30T02:24:28;1.83;;;1.73;;
2029;SDS011;1020;48.854;8.830;2023-07-30T02:26:55;2.23;;;2.03;;
2029;SDS011;1020;48.854;8.830;2023-07-30T02:29:21;2.43;;;2.33;;
2029;SDS011;1020;48.854;8.830;2023-07-30T02:31:49;2.50;;;2.30;;
2029;SDS011;1020;48.854;8.830;2023-07-30T02:34:16;2.57;;;2.37;;
2029;SDS011;1020;48.854;8.830;2023-07-30T02:36:43;1.97;;;1.87;;
2029;SDS011;1020;48.854;8.830;2023-07-30T02:39:10;3.33;;;2.50;;
2029;SDS011;1020;48.854;8.830;2023-07-30T02:41:36;2.60;;;2.20;;
2029;SDS011;1020;48.854;8.830;2023-07-30T02:44:03;2.50;;;2.30;;
2029;SDS011;1020;48.854;8.830;2023-07-30T02:46:30;2.30;;;2.13;;
2029;SDS011;1020;48.854;8.830;2023-07-30T02:48:58;2.77;;;2.57;;
2029;SDS011;1020;48.854;8.830;2023-07-30T02:51:25;2.83;;;2.20;;
2029;SDS011;1020;48.854;8.830;2023-07-30T02:53:52;2.00;;;1.80;;
2029;SDS011;1020;48.854;8.830;2023-07-30T02:56:23;2.17;;;2.00;;
2029;SDS011;1020;48.854;8.830;2023-07-30T02:58:49;3.17;;;2.97;;
2029;SDS011;1020;48.854;8.830;2023-07-30T03:01:16;3.27;;;3.07;;
2029;SDS011;1020;48.854;8.830;2023-07-30T03:03:43;2.87;;;2.67;;
2029;SDS011;1020;48.854;8.830;2023-07-30T03:06:11;3.07;;;2.87;;
2029;SDS011;1020;48.854;8.830;2023-07-30T03:08:39;3.13;;;2.93;;
2029;SDS011;1020;48.854;8.830;2023-07-30T03:11:05;3.50;;;3.30;;
2029;SDS011;1020;48.854;8.830;2023-07-30T03:13:32;2.90;;;2.70;;
2029;SDS011;1020;48.854;8.830;2023-07-30T03:15:59;3.07;;;2.87;;
2029;SDS011;1020;48.854;8.830;2023-07-30T03:18:26;4.53;;;3.43;;
2029;SDS011;1020;48.854;8.830;2023-07-30T03:20:58;3.67;;;3.40;;
2029;SDS011;1020;48.854;8.830;2023-07-30T03:23:26;2.97;;;2.77;;
2029;SDS011;1020;48.854;8.830;2023-07-30T03:25:53;3.40;;;3.10;;
2029;SDS011;1020;48.854;8.830;2023-07-30T03:28:20;3.40;;;3.20;;
2029;SDS011;1020;48.854;8.830;2023-07-30T03:30:47;3.10;;;2.90;;
2029;SDS011;1020;48.854;8.830;2023-07-30T03:33:14;3.17;;;2.97;;
2029;SDS011;1020;48.854;8.830;2023-07-30T03:35:40;3.00;;;2.57;;
2029;SDS011;1020;48.854;8.830;2023-07-30T03:38:07;2.50;;;2.40;;
2029;SDS011;1020;48.854;8.830;2023-07-30T03:40:35;2.70;;;2.50;;
2029;SDS011;1020;48.854;8.830;2023-07-30T03:43:02;2.97;;;2.77;;
2029;SDS011;1020;48.854;8.830;2023-07-30T03:45:29;3.60;;;3.27;;
2029;SDS011;1020;48.854;8.830;2023-07-30T03:47:56;5.73;;;3.20;;
2029;SDS011;1020;48.854;8.830;2023-07-30T03:50:22;3.83;;;3.30;;
2029;SDS011;1020;48.854;8.830;2023-07-30T03:52:49;3.60;;;3.30;;
2029;SDS011;1020;48.854;8.830;2023-07-30T03:55:16;4.30;;;2.80;;
2029;SDS011;1020;48.854;8.830;2023-07-30T03:57:44;17.83;;;4.10;;
2029;SDS011;1020;48.854;8.830;2023-07-30T04:00:11;3.30;;;3.00;;
2029;SDS011;1020;48.854;8.830;2023-07-30T04:02:37;5.37;;;3.40;;
2029;SDS011;1020;48.854;8.830;2023-07-30T04:05:04;3.57;;;3.33;;
2029;SDS011;1020;48.854;8.830;2023-07-30T04:07:31;4.40;;;3.30;;
2029;SDS011;1020;48.854;8.830;2023-07-30T04:09:58;4.13;;;3.70;;
2029;SDS011;1020;48.854;8.830;2023-07-30T04:12:25;3.33;;;3.10;;
2029;SDS011;1020;48.854;8.830;2023-07-30T04:14:53;3.60;;;3.30;;
2029;SDS011;1020;48.854;8.830;2023-07-30T04:17:20;4.40;;;4.10;;
2029;SDS011;1020;48.854;8.830;2023-07-30T04:19:46;7.63;;;4.00;;
2029;SDS011;1020;48.854;8.830;2023-07-30T04:22:13;5.50;;;3.30;;
2029;SDS011;1020;48.854;8.830;2023-07-30T04:24:40;6.60;;;3.30;;
2029;SDS011;1020;48.854;8.830;2023-07-30T04:27:07;3.00;;;2.70;;
2029;SDS011;1020;48.854;8.830;2023-07-30T04:29:33;2.90;;;2.70;;
2029;SDS011;1020;48.854;8.830;2023-07-30T04:32:01;4.23;;;2.93;;
2029;SDS011;1020;48.854;8.830;2023-07-30T04:34:28;2.30;;;2.20;;
2029;SDS011;1020;48.854;8.830;2023-07-30T04:36:55;1.90;;;1.80;;
2029;SDS011;1020;48.854;8.830;2023-07-30T04:39:22;2.03;;;1.83;;
2029;SDS011;1020;48.854;8.830;2023-07-30T04:41:49;1.70;;;1.60;;
2029;SDS011;1020;48.854;8.830;2023-07-30T04:44:15;2.00;;;1.90;;
2029;SDS011;1020;48.854;8.830;2023-07-30T04:46:42;5.70;;;2.20;;
2029;SDS011;1020;48.854;8.830;2023-07-30T04:49:10;2.17;;;2.07;;
2029;SDS011;1020;48.854;8.830;2023-07-30T04:51:37;2.20;;;2.10;;
2029;SDS011;1020;48.854;8.830;2023-07-30T04:54:04;3.77;;;1.93;;
2029;SDS011;1020;48.854;8.830;2023-07-30T04:56:31;3.23;;;2.17;;
2029;SDS011;1020;48.854;8.830;2023-07-30T04:58:58;3.10;;;2.23;;
2029;SDS011;1020;48.854;8.830;2023-07-30T05:01:25;2.43;;;2.23;;
2029;SDS011;1020;48.854;8.830;2023-07-30T05:03:52;3.47;;;1.60;;
2029;SDS011;1020;48.854;8.830;2023-07-30T05:06:20;1.77;;;1.67;;
2029;SDS011;1020;48.854;8.830;2023-07-30T05:08:47;3.23;;;1.93;;
2029;SDS011;1020;48.854;8.830;2023-07-30T05:11:14;2.00;;;1.90;;
2029;SDS011;1020;48.854;8.830;2023-07-30T05:13:40;2.27;;;1.77;;
2029;SDS011;1020;48.854;8.830;2023-07-30T05:16:07;1.60;;;1.50;;
2029;SDS011;1020;48.854;8.830;2023-07-30T05:18:34;2.20;;;1.60;;
2029;SDS011;1020;48.854;8.830;2023-07-30T05:21:01;1.30;;;1.20;;
2029;SDS011;1020;48.854;8.830;2023-07-30T05:23:29;1.33;;;1.30;;
2029;SDS011;1020;48.854;8.830;2023-07-30T05:25:55;1.00;;;1.00;;
2029;SDS011;1020;48.854;8.830;2023-07-30T05:28:22;1.30;;;1.20;;
2029;SDS011;1020;48.854;8.830;2023-07-30T05:30:49;1.43;;;1.43;;
2029;SDS011;1020;48.854;8.830;2023-07-30T05:33:16;0.90;;;0.90;;
2029;SDS011;1020;48.854;8.830;2023-07-30T05:35:43;1.30;;;1.30;;
2029;SDS011;1020;48.854;8.830;2023-07-30T05:38:10;1.37;;;1.27;;
2029;SDS011;1020;48.854;8.830;2023-07-30T05:40:38;1.40;;;1.40;;
2029;SDS011;1020;48.854;8.830;2023-07-30T05:43:05;1.50;;;1.40;;
2029;SDS011;1020;48.854;8.830;2023-07-30T05:45:33;1.60;;;1.50;;
2029;SDS011;1020;48.854;8.830;2023-07-30T05:48:00;1.63;;;1.53;;
2029;SDS011;1020;48.854;8.830;2023-07-30T05:50:27;1.50;;;1.00;;
2029;SDS011;1020;48.854;8.830;2023-07-30T05:52:53;1.67;;;1.20;;
2029;SDS011;1020;48.854;8.830;2023-07-30T05:55:20;1.80;;;1.53;;
2029;SDS011;1020;48.854;8.830;2023-07-30T05:57:48;4.50;;;1.70;;
2029;SDS011;1020;48.854;8.830;2023-07-30T06:00:15;1.93;;;1.83;;
2029;SDS011;1020;48.854;8.830;2023-07-30T06:02:42;1.40;;;1.40;;
2029;SDS011;1020;48.854;8.830;2023-07-30T06:05:09;1.90;;;1.60;;
2029;SDS011;1020;48.854;8.830;2023-07-30T06:07:35;1.60;;;1.50;;
2029;SDS011;1020;48.854;8.830;2023-07-30T06:10:02;1.67;;;1.57;;
2029;SDS011;1020;48.854;8.830;2023-07-30T06:12:30;1.60;;;1.50;;
2029;SDS011;1020;48.854;8.830;2023-07-30T06:14:58;2.10;;;1.50;;
2029;SDS011;1020;48.854;8.830;2023-07-30T06:17:25;1.60;;;1.50;;
2029;SDS011;1020;48.854;8.830;2023-07-30T06:19:51;2.00;;;1.90;;
2029;SDS011;1020;48.854;8.830;2023-07-30T06:22:18;1.90;;;1.80;;
2029;SDS011;1020;48.854;8.830;2023-07-30T06:24:45;1.93;;;1.83;;
2029;SDS011;1020;48.854;8.830;2023-07-30T06:27:11;1.60;;;1.50;;
2029;SDS011;1020;48.854;8.830;2023-07-30T06:29:38;1.43;;;1.33;;
2029;SDS011;1020;48.854;8.830;2023-07-30T06:32:07;1.10;;;1.10;;
2029;SDS011;1020;48.854;8.830;2023-07-30T06:34:34;1.70;;;1.30;;
2029;SDS011;1020;48.854;8.830;2023-07-30T06:37:00;1.50;;;1.40;;
2029;SDS011;1020;48.854;8.830;2023-07-30T06:39:27;1.50;;;1.40;;
2029;SDS011;1020;48.854;8.830;2023-07-30T06:41:54;1.27;;;1.27;;
2029;SDS011;1020;48.854;8.830;2023-07-30T06:44:21;1.40;;;1.30;;
2029;SDS011;1020;48.854;8.830;2023-07-30T06:46:49;1.20;;;1.20;;
2029;SDS011;1020;48.854;8.830;2023-07-30T06:49:17;1.60;;;1.50;;
2029;SDS011;1020;48.854;8.830;2023-07-30T06:51:44;1.63;;;1.53;;
2029;SDS011;1020;48.854;8.830;2023-07-30T06:54:11;2.13;;;2.03;;
2029;SDS011;1020;48.854;8.830;2023-07-30T06:56:37;2.53;;;2.33;;
2029;SDS011;1020;48.854;8.830;2023-07-30T06:59:04;2.30;;;2.10;;
2029;SDS011;1020;48.854;8.830;2023-07-30T07:01:31;2.63;;;2.43;;
2029;SDS011;1020;48.854;8.830;2023-07-30T07:03:58;2.50;;;2.30;;
2029;SDS011;1020;48.854;8.830;2023-07-30T07:06:26;2.93;;;2.63;;
2029;SDS011;1020;48.854;8.830;2023-07-30T07:08:53;3.60;;;2.33;;
2029;SDS011;1020;48.854;8.830;2023-07-30T07:11:20;3.10;;;2.70;;
2029;SDS011;1020;48.854;8.830;2023-07-30T07:13:46;2.00;;;1.63;;
2029;SDS011;1020;48.854;8.830;2023-07-30T07:16:13;2.47;;;2.23;;
2029;SDS011;1020;48.854;8.830;2023-07-30T07:18:40;2.50;;;2.30;;
2029;SDS011;1020;48.854;8.830;2023-07-30T07:21:07;3.73;;;2.20;;
2029;SDS011;1020;48.854;8.830;2023-07-30T07:23:35;2.40;;;2.20;;
2029;SDS011;1020;48.854;8.830;2023-07-30T07:26:02;2.40;;;2.20;;
2029;SDS011;1020;48.854;8.830;2023-07-30T07:28:29;3.27;;;2.43;;
2029;SDS011;1020;48.854;8.830;2023-07-30T07:30:55;2.40;;;2.27;;
2029;SDS011;1020;48.854;8.830;2023-07-30T07:33:22;2.30;;;2.10;;
2029;SDS011;1020;48.854;8.830;2023-07-30T07:35:49;3.93;;;2.10;;
2029;SDS011;1020;48.854;8.830;2023-07-30T07:38:16;2.60;;;2.40;;
2029;SDS011;1020;48.854;8.830;2023-07-30T07:40:44;2.20;;;2.10;;
2029;SDS011;1020;48.854;8.830;2023-07-30T07:43:11;2.60;;;2.40;;
2029;SDS011;1020;48.854;8.830;2023-07-30T07:45:38;2.70;;;2.50;;
2029;SDS011;1020;48.854;8.830;2023-07-30T07:48:04;2.60;;;2.40;;
2029;SDS011;1020;48.854;8.830;2023-07-30T07:50:32;2.10;;;2.00;;
2029;SDS011;1020;48.854;8.830;2023-07-30T07:52:58;1.90;;;1.80;;
2029;SDS011;1020;48.854;8.830;2023-07-30T07:55:25;2.37;;;2.20;;
2029;SDS011;1020;48.854;8.830;2023-07-30T07:57:53;2.33;;;2.23;;
2029;SDS011;1020;48.854;8.830;2023-07-30T08:00:20;2.10;;;2.00;;
2029;SDS011;1020;48.854;8.830;2023-07-30T08:02:47;2.23;;;2.13;;
2029;SDS011;1020;48.854;8.830;2023-07-30T08:05:13;2.20;;;2.00;;
2029;SDS011;1020;48.854;8.830;2023-07-30T08:07:41;2.13;;;2.03;;
2029;SDS011;1020;48.854;8.830;2023-07-30T08:10:09;1.90;;;1.80;;
2029;SDS011;1020;48.854;8.830;2023-07-30T08:12:36;2.40;;;1.90;;
2029;SDS011;1020;48.854;8.830;2023-07-30T08:15:06;2.00;;;1.90;;
2029;SDS011;1020;48.854;8.830;2023-07-30T08:17:33;1.70;;;1.57;;
2029;SDS011;1020;48.854;8.830;2023-07-30T08:20:00;1.73;;;1.50;;
2029;SDS011;1020;48.854;8.830;2023-07-30T08:22:27;1.30;;;1.20;;
2029;SDS011;1020;48.854;8.830;2023-07-30T08:24:54;1.90;;;1.70;;
2029;SDS011;1020;48.854;8.830;2023-07-30T08:27:21;1.57;;;1.47;;
2029;SDS011;1020;48.854;8.830;2023-07-30T08:29:47;1.93;;;1.60;;
2029;SDS011;1020;48.854;8.830;2023-07-30T08:32:15;3.73;;;1.70;;
2029;SDS011;1020;48.854;8.830;2023-07-30T08:34:42;3.30;;;2.00;;
2029;SDS011;1020;48.854;8.830;2023-07-30T08:37:09;2.03;;;1.90;;
2029;SDS011;1020;48.854;8.830;2023-07-30T08:39:36;2.00;;;1.90;;
2029;SDS011;1020;48.854;8.830;2023-07-30T08:42:03;1.70;;;1.60;;
2029;SDS011;1020;48.854;8.830;2023-07-30T08:44:30;2.20;;;1.90;;
2029;SDS011;1020;48.854;8.830;2023-07-30T08:46:57;1.80;;;1.70;;
2029;SDS011;1020;48.854;8.830;2023-07-30T08:49:25;2.13;;;2.03;;
2029;SDS011;1020;48.854;8.830;2023-07-30T08:51:53;2.20;;;2.00;;
2029;SDS011;1020;48.854;8.830;2023-07-30T08:54:20;2.10;;;1.90;;
2029;SDS011;1020;48.854;8.830;2023-07-30T08:56:49;2.03;;;1.93;;
2029;SDS011;1020;48.854;8.830;2023-07-30T08:59:17;2.23;;;2.13;;
2029;SDS011;1020;48.854;8.830;2023-07-30T09:01:45;2.30;;;2.10;;
2029;SDS011;1020;48.854;8.830;2023-07-30T09:04:15;2.93;;;2.33;;
2029;SDS011;1020;48.854;8.830;2023-07-30T09:06:46;4.10;;;2.47;;
2029;SDS011;1020;48.854;8.830;2023-07-30T09:09:14;2.03;;;1.93;;
2029;SDS011;1020;48.854;8.830;2023-07-30T09:11:40;2.10;;;2.00;;
2029;SDS011;1020;48.854;8.830;2023-07-30T09:14:07;2.00;;;1.90;;
2029;SDS011;1020;48.854;8.830;2023-07-30T09:16:34;2.40;;;1.97;;
2029;SDS011;1020;48.854;8.830;2023-07-30T09:19:01;2.40;;;1.83;;
2029;SDS011;1020;48.854;8.830;2023-07-30T09:21:29;2.00;;;1.90;;
2029;SDS011;1020;48.854;8.830;2023-07-30T09:23:58;2.13;;;2.03;;
2029;SDS011;1020;48.854;8.830;2023-07-30T09:26:36;2.30;;;2.00;;
2029;SDS011;1020;48.854;8.830;2023-07-30T09:29:07;1.93;;;1.83;;
2029;SDS011;1020;48.854;8.830;2023-07-30T09:31:42;1.67;;;1.57;;
2029;SDS011;1020;48.854;8.830;2023-07-30T09:34:14;2.17;;;1.97;;
2029;SDS011;1020;48.854;8.830;2023-07-30T09:36:43;2.43;;;1.83;;
2029;SDS011;1020;48.854;8.830;2023-07-30T09:39:15;1.90;;;1.80;;
2029;SDS011;1020;48.854;8.830;2023-07-30T09:41:43;2.00;;;1.90;;
2029;SDS011;1020;48.854;8.830;2023-07-30T09:44:10;2.13;;;1.80;;
2029;SDS011;1020;48.854;8.830;2023-07-30T09:46:41;1.67;;;1.53;;
2029;SDS011;1020;48.854;8.830;2023-07-30T09:49:08;2.23;;;2.13;;
2029;SDS011;1020;48.854;8.830;2023-07-30T09:51:36;2.77;;;2.30;;
2029;SDS011;1020;48.854;8.830;2023-07-30T09:54:03;3.40;;;2.40;;
2029;SDS011;1020;48.854;8.830;2023-07-30T09:56:33;2.10;;;2.00;;
2029;SDS011;1020;48.854;8.830;2023-07-30T09:58:59;3.33;;;2.10;;
2029;SDS011;1020;48.854;8.830;2023-07-30T10:01:26;3.07;;;2.60;;
2029;SDS011;1020;48.854;8.830;2023-07-30T10:03:56;2.60;;;2.40;;
2029;SDS011;1020;48.854;8.830;2023-07-30T10:06:23;2.30;;;2.10;;
2029;SDS011;1020;48.854;8.830;2023-07-30T10:08:53;2.17;;;2.07;;
2029;SDS011;1020;48.854;8.830;2023-07-30T10:11:22;5.20;;;2.43;;
2029;SDS011;1020;48.854;8.830;2023-07-30T10:13:52;3.03;;;1.80;;
2029;SDS011;1020;48.854;8.830;2023-07-30T10:16:24;2.27;;;2.07;;
2029;SDS011;1020;48.854;8.830;2023-07-30T10:18:53;2.70;;;2.37;;
2029;SDS011;1020;48.854;8.830;2023-07-30T10:21:23;2.23;;;2.13;;
2029;SDS011;1020;48.854;8.830;2023-07-30T10:23:57;3.27;;;2.20;;
2029;SDS011;1020;48.854;8.830;2023-07-30T10:26:26;2.63;;;2.30;;
2029;SDS011;1020;48.854;8.830;2023-07-30T10:31:49;2.40;;;2.20;;
2029;SDS011;1020;48.854;8.830;2023-07-30T10:34:19;3.07;;;2.40;;
2029;SDS011;1020;48.854;8.830;2023-07-30T10:36:46;1.90;;;1.80;;
2029;SDS011;1020;48.854;8.830;2023-07-30T10:39:15;2.87;;;2.30;;
2029;SDS011;1020;48.854;8.830;2023-07-30T10:41:43;3.17;;;2.73;;
2029;SDS011;1020;48.854;8.830;2023-07-30T10:44:17;2.43;;;2.23;;
2029;SDS011;1020;48.854;8.830;2023-07-30T10:46:45;2.43;;;2.27;;
2029;SDS011;1020;48.854;8.830;2023-07-30T10:49:14;3.03;;;2.70;;
2029;SDS011;1020;48.854;8.830;2023-07-30T10:54:16;2.03;;;1.93;;
2029;SDS011;1020;48.854;8.830;2023-07-30T10:56:43;2.43;;;2.33;;
2029;SDS011;1020;48.854;8.830;2023-07-30T10:59:10;3.17;;;2.20;;
2029;SDS011;1020;48.854;8.830;2023-07-30T11:01:38;2.50;;;2.30;;
2029;SDS011;1020;48.854;8.830;2023-07-30T11:04:06;3.53;;;2.60;;
2029;SDS011;1020;48.854;8.830;2023-07-30T11:06:36;3.53;;;2.80;;
2029;SDS011;1020;48.854;8.830;2023-07-30T11:09:03;2.07;;;1.97;;
2029;SDS011;1020;48.854;8.830;2023-07-30T11:11:30;2.30;;;2.20;;
2029;SDS011;1020;48.854;8.830;2023-07-30T11:13:57;2.17;;;2.07;;
2029;SDS011;1020;48.854;8.830;2023-07-30T11:16:24;1.97;;;1.87;;
2029;SDS011;1020;48.854;8.830;2023-07-30T11:18:51;2.70;;;1.90;;
2029;SDS011;1020;48.854;8.830;2023-07-30T11:21:18;3.70;;;1.73;;
2029;SDS011;1020;48.854;8.830;2023-07-30T11:23:46;1.80;;;1.70;;
2029;SDS011;1020;48.854;8.830;2023-07-30T11:26:13;2.00;;;1.90;;
2029;SDS011;1020;48.854;8.830;2023-07-30T11:28:42;2.70;;;1.83;;
2029;SDS011;1020;48.854;8.830;2023-07-30T11:31:10;2.60;;;1.70;;
2029;SDS011;1020;48.854;8.830;2023-07-30T11:33:39;1.87;;;1.77;;
2029;SDS011;1020;48.854;8.830;2023-07-30T11:36:08;2.50;;;2.30;;
2029;SDS011;1020;48.854;8.830;2023-07-30T11:38:36;2.20;;;2.03;;
2029;SDS011;1020;48.854;8.830;2023-07-30T11:41:06;2.50;;;2.30;;
2029;SDS011;1020;48.854;8.830;2023-07-30T11:43:36;2.10;;;2.00;;
2029;SDS011;1020;48.854;8.830;2023-07-30T11:46:07;3.33;;;1.90;;
2029;SDS011;1020;48.854;8.830;2023-07-30T11:48:34;3.13;;;2.50;;
2029;SDS011;1020;48.854;8.830;2023-07-30T11:51:02;9.47;;;2.30;;
2029;SDS011;1020;48.854;8.830;2023-07-30T11:53:44;2.07;;;1.97;;
2029;SDS011;1020;48.854;8.830;2023-07-30T11:56:17;2.17;;;1.93;;
2029;SDS011;1020;48.854;8.830;2023-07-30T11:58:46;1.63;;;1.53;;
2029;SDS011;1020;48.854;8.830;2023-07-30T12:01:14;2.50;;;2.30;;
2029;SDS011;1020;48.854;8.830;2023-07-30T12:03:41;2.40;;;2.13;;
2029;SDS011;1020;48.854;8.830;2023-07-30T12:06:09;4.37;;;2.43;;
2029;SDS011;1020;48.854;8.830;2023-07-30T12:08:36;3.27;;;1.90;;
2029;SDS011;1020;48.854;8.830;2023-07-30T12:11:04;2.00;;;1.90;;
2029;SDS011;1020;48.854;8.830;2023-07-30T12:13:33;4.50;;;2.30;;
2029;SDS011;1020;48.854;8.830;2023-07-30T12:16:00;2.37;;;2.10;;
2029;SDS011;1020;48.854;8.830;2023-07-30T12:18:27;1.73;;;1.63;;
2029;SDS011;1020;48.854;8.830;2023-07-30T12:20:54;2.07;;;1.57;;
2029;SDS011;1020;48.854;8.830;2023-07-30T12:23:23;2.30;;;1.67;;
2029;SDS011;1020;48.854;8.830;2023-07-30T12:25:50;1.60;;;1.50;;
2029;SDS011;1020;48.854;8.830;2023-07-30T12:28:17;2.57;;;1.40;;
2029;SDS011;1020;48.854;8.830;2023-07-30T12:30:45;2.20;;;1.93;;
2029;SDS011;1020;48.854;8.830;2023-07-30T12:33:12;2.00;;;1.83;;
2029;SDS011;1020;48.854;8.830;2023-07-30T12:35:38;1.60;;;1.50;;
2029;SDS011;1020;48.854;8.830;2023-07-30T12:38:05;1.50;;;1.40;;
2029;SDS011;1020;48.854;8.830;2023-07-30T12:40:32;1.83;;;1.73;;
2029;SDS011;1020;48.854;8.830;2023-07-30T12:43:00;1.90;;;1.17;;
2029;SDS011;1020;48.854;8.830;2023-07-30T12:45:28;1.70;;;1.60;;
2029;SDS011;1020;48.854;8.830;2023-07-30T12:47:56;3.70;;;1.70;;
2029;SDS011;1020;48.854;8.830;2023-07-30T12:50:24;2.30;;;1.70;;
2029;SDS011;1020;48.854;8.830;2023-07-30T12:52:51;1.40;;;1.33;;
2029;SDS011;1020;48.854;8.830;2023-07-30T12:55:20;2.33;;;1.40;;
2029;SDS011;1020;48.854;8.830;2023-07-30T12:57:47;4.17;;;1.80;;
2029;SDS011;1020;48.854;8.830;2023-07-30T13:00:14;1.27;;;1.20;;
2029;SDS011;1020;48.854;8.830;2023-07-30T13:02:42;2.20;;;1.73;;
2029;SDS011;1020;48.854;8.830;2023-07-30T13:05:10;5.50;;;1.40;;
2029;SDS011;1020;48.854;8.830;2023-07-30T13:07:38;2.10;;;1.90;;
2029;SDS011;1020;48.854;8.830;2023-07-30T13:10:06;3.10;;;1.53;;
2029;SDS011;1020;48.854;8.830;2023-07-30T13:12:34;1.70;;;1.60;;
2029;SDS011;1020;48.854;8.830;2023-07-30T13:15:02;2.10;;;1.30;;
2029;SDS011;1020;48.854;8.830;2023-07-30T13:17:30;2.17;;;1.40;;
2029;SDS011;1020;48.854;8.830;2023-07-30T13:19:57;2.60;;;1.37;;
2029;SDS011;1020;48.854;8.830;2023-07-30T13:22:25;1.60;;;1.50;;
2029;SDS011;1020;48.854;8.830;2023-07-30T13:24:54;1.20;;;1.10;;
2029;SDS011;1020;48.854;8.830;2023-07-30T13:27:21;3.23;;;1.60;;
2029;SDS011;1020;48.854;8.830;2023-07-30T13:29:48;4.50;;;1.90;;
2029;SDS011;1020;48.854;8.830;2023-07-30T13:32:15;2.53;;;1.40;;
2029;SDS011;1020;48.854;8.830;2023-07-30T13:34:42;1.40;;;1.30;;
2029;SDS011;1020;48.854;8.830;2023-07-30T13:37:09;2.60;;;1.70;;
2029;SDS011;1020;48.854;8.830;2023-07-30T13:39:37;1.80;;;1.70;;
2029;SDS011;1020;48.854;8.830;2023-07-30T13:42:05;4.20;;;1.90;;
2029;SDS011;1020;48.854;8.830;2023-07-30T13:44:31;2.53;;;1.90;;
2029;SDS011;1020;48.854;8.830;2023-07-30T13:46:58;1.80;;;1.53;;
2029;SDS011;1020;48.854;8.830;2023-07-30T13:49:25;6.23;;;1.70;;
2029;SDS011;1020;48.854;8.830;2023-07-30T13:51:52;3.10;;;1.60;;
2029;SDS011;1020;48.854;8.830;2023-07-30T13:54:18;2.13;;;1.67;;
2029;SDS011;1020;48.854;8.830;2023-07-30T13:56:47;2.23;;;1.43;;
2029;SDS011;1020;48.854;8.830;2023-07-30T13:59:13;1.63;;;1.40;;
2029;SDS011;1020;48.854;8.830;2023-07-30T14:01:43;3.03;;;1.60;;
2029;SDS011;1020;48.854;8.830;2023-07-30T14:04:10;2.50;;;1.90;;
2029;SDS011;1020;48.854;8.830;2023-07-30T14:06:36;1.60;;;1.50;;
2029;SDS011;1020;48.854;8.830;2023-07-30T14:09:03;2.57;;;1.80;;
2029;SDS011;1020;48.854;8.830;2023-07-30T14:11:30;2.03;;;1.60;;
2029;SDS011;1020;48.854;8.830;2023-07-30T14:13:58;3.00;;;1.67;;
2029;SDS011;1020;48.854;8.830;2023-07-30T14:16:25;3.43;;;1.60;;
2029;SDS011;1020;48.854;8.830;2023-07-30T14:18:52;3.07;;;1.40;;
2029;SDS011;1020;48.854;8.830;2023-07-30T14:21:19;2.50;;;1.60;;
2029;SDS011;1020;48.854;8.830;2023-07-30T14:23:45;1.40;;;1.30;;
2029;SDS011;1020;48.854;8.830;2023-07-30T14:26:12;1.73;;;1.57;;
2029;SDS011;1020;48.854;8.830;2023-07-30T14:28:39;1.80;;;1.70;;
2029;SDS011;1020;48.854;8.830;2023-07-30T14:31:08;1.90;;;1.77;;
2029;SDS011;1020;48.854;8.830;2023-07-30T14:33:34;2.43;;;1.30;;
2029;SDS011;1020;48.854;8.830;2023-07-30T14:36:01;2.10;;;1.63;;
2029;SDS011;1020;48.854;8.830;2023-07-30T14:38:29;2.20;;;1.80;;
2029;SDS011;1020;48.854;8.830;2023-07-30T14:40:59;2.30;;;1.57;;
2029;SDS011;1020;48.854;8.830;2023-07-30T14:43:26;2.80;;;1.27;;
2029;SDS011;1020;48.854;8.830;2023-07-30T14:45:53;1.53;;;1.40;;
2029;SDS011;1020;48.854;8.830;2023-07-30T14:48:21;1.63;;;1.40;;
2029;SDS011;1020;48.854;8.830;2023-07-30T14:50:48;2.33;;;1.93;;
2029;SDS011;1020;48.854;8.830;2023-07-30T14:53:15;1.77;;;1.33;;
2029;SDS011;1020;48.854;8.830;2023-07-30T14:55:41;2.80;;;1.70;;
2029;SDS011;1020;48.854;8.830;2023-07-30T14:58:08;1.63;;;1.50;;
2029;SDS011;1020;48.854;8.830;2023-07-30T15:00:35;2.43;;;1.63;;
2029;SDS011;1020;48.854;8.830;2023-07-30T15:03:02;1.57;;;1.10;;
2029;SDS011;1020;48.854;8.830;2023-07-30T15:05:31;6.30;;;2.50;;
2029;SDS011;1020;48.854;8.830;2023-07-30T15:07:58;2.10;;;1.77;;
2029;SDS011;1020;48.854;8.830;2023-07-30T15:10:26;1.47;;;1.20;;
2029;SDS011;1020;48.854;8.830;2023-07-30T15:12:53;2.03;;;1.50;;
2029;SDS011;1020;48.854;8.830;2023-07-30T15:15:19;1.60;;;1.50;;
2029;SDS011;1020;48.854;8.830;2023-07-30T15:17:46;2.37;;;1.70;;
2029;SDS011;1020;48.854;8.830;2023-07-30T15:20:13;4.60;;;1.70;;
2029;SDS011;1020;48.854;8.830;2023-07-30T15:22:41;2.47;;;1.60;;